sensor_id;sensor_type;location;lat;lon;timestamp;temperature;humidity
21563;DHT22;10942;47.894;11.424;2023-04-03T00:00:04;2.80;99.90
21563;DHT22;10942;47.894;11.424;2023-04-03T00:02:32;2.80;99.90
21563;DHT22;10942;47.894;11.424;2023-04-03T00:04:58;2.90;99.90
21563;DHT22;10942;47.894;11.424;2023-04-03T00:07:23;2.80;99.90
21563;DHT22;10942;47.894;11.424;2023-04-03T00:09:49;2.90;99.90
21563;DHT22;10942;47.894;11.424;2023-04-03T00:12:15;2.90;99.90
21563;DHT22;10942;47.894;11.424;2023-04-03T00:14:41;3.00;99.90
21563;DHT22;10942;47.894;11.424;2023-04-03T00:17:07;3.00;99.90
21563;DHT22;10942;47.894;11.424;2023-04-03T00:19:32;2.90;99.90
21563;DHT22;10942;47.894;11.424;2023-04-03T00:21:58;2.90;99.90
21563;DHT22;10942;47.894;11.424;2023-04-03T00:24:24;2.90;99.90
21563;DHT22;10942;47.894;11.424;2023-04-03T00:26:49;2.80;99.90
21563;DHT22;10942;47.894;11.424;2023-04-03T00:29:15;2.70;99.90
21563;DHT22;10942;47.894;11.424;2023-04-03T00:31:41;2.70;99.90
21563;DHT22;10942;47.894;11.424;2023-04-03T00:34:07;2.60;99.90
21563;DHT22;10942;47.894;11.424;2023-04-03T00:36:32;2.60;99.90
21563;DHT22;10942;47.894;11.424;2023-04-03T00:38:58;2.60;99.90
21563;DHT22;10942;47.894;11.424;2023-04-03T00:41:24;2.60;99.90
21563;DHT22;10942;47.894;11.424;2023-04-03T00:43:51;2.50;99.90
21563;DHT22;10942;47.894;11.424;2023-04-03T00:46:16;2.50;99.90
21563;DHT22;10942;47.894;11.424;2023-04-03T00:48:47;2.50;99.90
21563;DHT22;10942;47.894;11.424;2023-04-03T00:51:24;2.40;99.90
21563;DHT22;10942;47.894;11.424;2023-04-03T00:53:56;2.40;99.90
21563;DHT22;10942;47.894;11.424;2023-04-03T00:56:25;2.50;99.90
21563;DHT22;10942;47.894;11.424;2023-04-03T00:59:06;2.50;99.90
21563;DHT22;10942;47.894;11.424;2023-04-03T01:01:34;2.50;99.90
21563;DHT22;10942;47.894;11.424;2023-04-03T01:04:00;2.60;99.90
21563;DHT22;10942;47.894;11.424;2023-04-03T01:06:35;2.60;99.90
21563;DHT22;10942;47.894;11.424;2023-04-03T01:09:05;2.60;99.90
21563;DHT22;10942;47.894;11.424;2023-04-03T01:11:31;2.60;99.90
21563;DHT22;10942;47.894;11.424;2023-04-03T01:13:59;2.60;99.90
21563;DHT22;10942;47.894;11.424;2023-04-03T01:16:27;2.60;99.90
21563;DHT22;10942;47.894;11.424;2023-04-03T01:18:58;2.60;99.90
21563;DHT22;10942;47.894;11.424;2023-04-03T01:21:34;2.60;99.90
21563;DHT22;10942;47.894;11.424;2023-04-03T01:24:26;2.70;99.90
21563;DHT22;10942;47.894;11.424;2023-04-03T01:26:54;2.70;99.90
21563;DHT22;10942;47.894;11.424;2023-04-03T01:29:20;2.70;99.90
21563;DHT22;10942;47.894;11.424;2023-04-03T01:31:58;2.60;99.90
21563;DHT22;10942;47.894;11.424;2023-04-03T01:34:25;2.60;99.90
21563;DHT22;10942;47.894;11.424;2023-04-03T01:36:51;2.70;99.90
21563;DHT22;10942;47.894;11.424;2023-04-03T01:39:19;2.60;99.90
21563;DHT22;10942;47.894;11.424;2023-04-03T01:41:45;2.60;99.90
21563;DHT22;10942;47.894;11.424;2023-04-03T01:44:21;2.60;99.90
21563;DHT22;10942;47.894;11.424;2023-04-03T01:46:47;2.70;99.90
21563;DHT22;10942;47.894;11.424;2023-04-03T01:49:13;2.70;99.90
21563;DHT22;10942;47.894;11.424;2023-04-03T01:51:39;2.70;99.90
21563;DHT22;10942;47.894;11.424;2023-04-03T01:54:05;2.70;99.90
21563;DHT22;10942;47.894;11.424;2023-04-03T01:56:30;2.70;99.90
21563;DHT22;10942;47.894;11.424;2023-04-03T01:58:56;2.80;99.90
21563;DHT22;10942;47.894;11.424;2023-04-03T02:01:22;2.70;99.90
21563;DHT22;10942;47.894;11.424;2023-04-03T02:03:47;2.70;99.90
21563;DHT22;10942;47.894;11.424;2023-04-03T02:06:13;2.70;99.90
21563;DHT22;10942;47.894;11.424;2023-04-03T02:08:39;2.60;99.90
21563;DHT22;10942;47.894;11.424;2023-04-03T02:11:07;2.50;99.90
21563;DHT22;10942;47.894;11.424;2023-04-03T02:13:32;2.50;99.90
21563;DHT22;10942;47.894;11.424;2023-04-03T02:15:59;2.50;99.90
21563;DHT22;10942;47.894;11.424;2023-04-03T02:18:25;2.30;99.90
21563;DHT22;10942;47.894;11.424;2023-04-03T02:20:50;2.30;99.90
21563;DHT22;10942;47.894;11.424;2023-04-03T02:23:16;2.20;99.90
21563;DHT22;10942;47.894;11.424;2023-04-03T02:25:43;2.20;99.90
21563;DHT22;10942;47.894;11.424;2023-04-03T02:28:08;2.10;99.90
21563;DHT22;10942;47.894;11.424;2023-04-03T02:30:34;2.10;99.90
21563;DHT22;10942;47.894;11.424;2023-04-03T02:33:00;2.10;99.90
21563;DHT22;10942;47.894;11.424;2023-04-03T02:35:26;2.10;99.90
21563;DHT22;10942;47.894;11.424;2023-04-03T02:37:54;2.10;99.90
21563;DHT22;10942;47.894;11.424;2023-04-03T02:40:22;2.10;99.90
21563;DHT22;10942;47.894;11.424;2023-04-03T02:42:47;2.10;99.90
21563;DHT22;10942;47.894;11.424;2023-04-03T02:45:13;2.10;99.90
21563;DHT22;10942;47.894;11.424;2023-04-03T02:47:39;2.20;99.90
21563;DHT22;10942;47.894;11.424;2023-04-03T02:50:05;2.20;99.90
21563;DHT22;10942;47.894;11.424;2023-04-03T02:52:31;2.20;99.90
21563;DHT22;10942;47.894;11.424;2023-04-03T02:54:57;2.10;99.90
21563;DHT22;10942;47.894;11.424;2023-04-03T02:57:23;2.10;99.90
21563;DHT22;10942;47.894;11.424;2023-04-03T02:59:49;2.00;99.90
21563;DHT22;10942;47.894;11.424;2023-04-03T03:02:15;2.10;99.90
21563;DHT22;10942;47.894;11.424;2023-04-03T03:04:41;2.10;99.90
21563;DHT22;10942;47.894;11.424;2023-04-03T03:07:06;2.10;99.90
21563;DHT22;10942;47.894;11.424;2023-04-03T03:09:32;2.00;99.90
21563;DHT22;10942;47.894;11.424;2023-04-03T03:11:58;2.10;99.90
21563;DHT22;10942;47.894;11.424;2023-04-03T03:14:24;2.10;99.90
21563;DHT22;10942;47.894;11.424;2023-04-03T03:16:50;2.00;99.90
21563;DHT22;10942;47.894;11.424;2023-04-03T03:19:15;2.00;99.90
21563;DHT22;10942;47.894;11.424;2023-04-03T03:21:41;2.10;99.90
21563;DHT22;10942;47.894;11.424;2023-04-03T03:24:07;2.10;99.90
21563;DHT22;10942;47.894;11.424;2023-04-03T03:26:33;2.00;99.90
21563;DHT22;10942;47.894;11.424;2023-04-03T03:28:58;2.00;99.90
21563;DHT22;10942;47.894;11.424;2023-04-03T03:31:25;2.10;99.90
21563;DHT22;10942;47.894;11.424;2023-04-03T03:33:51;2.10;99.90
21563;DHT22;10942;47.894;11.424;2023-04-03T03:36:18;2.00;99.90
21563;DHT22;10942;47.894;11.424;2023-04-03T03:38:43;2.00;99.90
21563;DHT22;10942;47.894;11.424;2023-04-03T03:41:09;2.10;99.90
21563;DHT22;10942;47.894;11.424;2023-04-03T03:43:35;2.10;99.90
21563;DHT22;10942;47.894;11.424;2023-04-03T03:46:03;2.00;99.90
21563;DHT22;10942;47.894;11.424;2023-04-03T03:48:29;2.10;99.90
21563;DHT22;10942;47.894;11.424;2023-04-03T03:50:55;2.10;99.90
21563;DHT22;10942;47.894;11.424;2023-04-03T03:53:25;2.10;99.90
21563;DHT22;10942;47.894;11.424;2023-04-03T03:55:53;2.10;99.90
21563;DHT22;10942;47.894;11.424;2023-04-03T03:58:21;2.00;99.90
21563;DHT22;10942;47.894;11.424;2023-04-03T04:00:47;2.00;99.90
21563;DHT22;10942;47.894;11.424;2023-04-03T04:03:13;2.10;99.90
21563;DHT22;10942;47.894;11.424;2023-04-03T04:05:40;2.10;99.90
21563;DHT22;10942;47.894;11.424;2023-04-03T04:08:05;2.00;99.90
21563;DHT22;10942;47.894;11.424;2023-04-03T04:10:32;2.00;99.90
21563;DHT22;10942;47.894;11.424;2023-04-03T04:12:58;2.00;99.90
21563;DHT22;10942;47.894;11.424;2023-04-03T04:15:26;2.00;99.90
21563;DHT22;10942;47.894;11.424;2023-04-03T04:17:53;2.00;99.90
21563;DHT22;10942;47.894;11.424;2023-04-03T04:20:19;2.00;99.90
21563;DHT22;10942;47.894;11.424;2023-04-03T04:22:47;2.10;99.90
21563;DHT22;10942;47.894;11.424;2023-04-03T04:25:12;2.20;99.90
21563;DHT22;10942;47.894;11.424;2023-04-03T04:27:39;2.20;99.90
21563;DHT22;10942;47.894;11.424;2023-04-03T04:30:06;2.20;99.90
21563;DHT22;10942;47.894;11.424;2023-04-03T04:32:32;2.10;99.90
21563;DHT22;10942;47.894;11.424;2023-04-03T04:34:58;2.10;99.90
21563;DHT22;10942;47.894;11.424;2023-04-03T04:37:25;2.10;99.90
21563;DHT22;10942;47.894;11.424;2023-04-03T04:39:52;2.10;99.90
21563;DHT22;10942;47.894;11.424;2023-04-03T04:42:17;2.20;99.90
21563;DHT22;10942;47.894;11.424;2023-04-03T04:44:45;2.20;99.90
21563;DHT22;10942;47.894;11.424;2023-04-03T04:47:14;2.30;99.90
21563;DHT22;10942;47.894;11.424;2023-04-03T04:49:40;2.30;99.90
21563;DHT22;10942;47.894;11.424;2023-04-03T04:52:07;2.20;99.90
21563;DHT22;10942;47.894;11.424;2023-04-03T04:54:33;2.20;99.90
21563;DHT22;10942;47.894;11.424;2023-04-03T04:56:59;2.30;99.90
21563;DHT22;10942;47.894;11.424;2023-04-03T04:59:26;2.20;99.90
21563;DHT22;10942;47.894;11.424;2023-04-03T05:01:54;2.20;99.90
21563;DHT22;10942;47.894;11.424;2023-04-03T05:04:20;2.20;99.90
21563;DHT22;10942;47.894;11.424;2023-04-03T05:06:50;2.20;99.90
21563;DHT22;10942;47.894;11.424;2023-04-03T05:09:21;2.10;99.90
21563;DHT22;10942;47.894;11.424;2023-04-03T05:11:48;2.30;99.90
21563;DHT22;10942;47.894;11.424;2023-04-03T05:14:16;2.20;99.90
21563;DHT22;10942;47.894;11.424;2023-04-03T05:16:42;2.20;99.90
21563;DHT22;10942;47.894;11.424;2023-04-03T05:19:08;2.30;99.90
21563;DHT22;10942;47.894;11.424;2023-04-03T05:21:34;2.30;99.90
21563;DHT22;10942;47.894;11.424;2023-04-03T05:24:05;2.30;99.90
21563;DHT22;10942;47.894;11.424;2023-04-03T05:26:36;2.40;99.90
21563;DHT22;10942;47.894;11.424;2023-04-03T05:29:03;2.30;99.90
21563;DHT22;10942;47.894;11.424;2023-04-03T05:31:29;2.30;99.90
21563;DHT22;10942;47.894;11.424;2023-04-03T05:33:56;2.40;99.90
21563;DHT22;10942;47.894;11.424;2023-04-03T05:36:22;2.30;99.90
21563;DHT22;10942;47.894;11.424;2023-04-03T05:38:53;2.40;99.90
21563;DHT22;10942;47.894;11.424;2023-04-03T05:41:19;2.40;99.90
21563;DHT22;10942;47.894;11.424;2023-04-03T05:43:46;2.50;99.90
21563;DHT22;10942;47.894;11.424;2023-04-03T05:46:15;2.50;99.90
21563;DHT22;10942;47.894;11.424;2023-04-03T05:48:44;2.50;99.90
21563;DHT22;10942;47.894;11.424;2023-04-03T05:51:24;2.50;99.90
21563;DHT22;10942;47.894;11.424;2023-04-03T05:53:59;2.60;99.90
21563;DHT22;10942;47.894;11.424;2023-04-03T05:56:28;2.60;99.90
21563;DHT22;10942;47.894;11.424;2023-04-03T05:58:54;2.50;99.90
21563;DHT22;10942;47.894;11.424;2023-04-03T06:01:20;2.50;99.90
21563;DHT22;10942;47.894;11.424;2023-04-03T06:03:46;2.40;99.90
21563;DHT22;10942;47.894;11.424;2023-04-03T06:06:15;2.40;99.90
21563;DHT22;10942;47.894;11.424;2023-04-03T06:08:41;2.50;99.90
21563;DHT22;10942;47.894;11.424;2023-04-03T06:11:07;2.60;99.90
21563;DHT22;10942;47.894;11.424;2023-04-03T06:13:34;2.60;99.90
21563;DHT22;10942;47.894;11.424;2023-04-03T06:16:01;2.60;99.90
21563;DHT22;10942;47.894;11.424;2023-04-03T06:18:27;2.50;99.90
21563;DHT22;10942;47.894;11.424;2023-04-03T06:20:54;2.60;99.90
21563;DHT22;10942;47.894;11.424;2023-04-03T06:23:20;2.60;99.90
21563;DHT22;10942;47.894;11.424;2023-04-03T06:25:46;2.50;99.90
21563;DHT22;10942;47.894;11.424;2023-04-03T06:28:12;2.60;99.90
21563;DHT22;10942;47.894;11.424;2023-04-03T06:30:38;2.60;99.90
21563;DHT22;10942;47.894;11.424;2023-04-03T06:33:04;2.60;99.90
21563;DHT22;10942;47.894;11.424;2023-04-03T06:35:30;2.50;99.90
21563;DHT22;10942;47.894;11.424;2023-04-03T06:37:56;2.50;99.90
21563;DHT22;10942;47.894;11.424;2023-04-03T06:40:25;2.50;99.90
21563;DHT22;10942;47.894;11.424;2023-04-03T06:42:51;2.50;99.90
21563;DHT22;10942;47.894;11.424;2023-04-03T06:45:18;2.60;99.90
21563;DHT22;10942;47.894;11.424;2023-04-03T06:47:44;2.60;99.90
21563;DHT22;10942;47.894;11.424;2023-04-03T06:50:11;2.50;99.90
21563;DHT22;10942;47.894;11.424;2023-04-03T06:52:39;2.50;99.90
21563;DHT22;10942;47.894;11.424;2023-04-03T06:55:06;2.50;99.90
21563;DHT22;10942;47.894;11.424;2023-04-03T06:57:32;2.60;99.90
21563;DHT22;10942;47.894;11.424;2023-04-03T06:59:57;2.70;99.90
21563;DHT22;10942;47.894;11.424;2023-04-03T07:02:23;2.70;99.90
21563;DHT22;10942;47.894;11.424;2023-04-03T07:04:49;2.80;99.90
21563;DHT22;10942;47.894;11.424;2023-04-03T07:07:14;2.80;99.90
21563;DHT22;10942;47.894;11.424;2023-04-03T07:09:40;2.80;99.90
21563;DHT22;10942;47.894;11.424;2023-04-03T07:12:07;2.80;99.90
21563;DHT22;10942;47.894;11.424;2023-04-03T07:14:33;2.90;99.90
21563;DHT22;10942;47.894;11.424;2023-04-03T07:16:59;2.90;99.90
21563;DHT22;10942;47.894;11.424;2023-04-03T07:19:25;2.90;99.90
21563;DHT22;10942;47.894;11.424;2023-04-03T07:21:53;2.90;99.90
21563;DHT22;10942;47.894;11.424;2023-04-03T07:24:19;2.90;99.90
21563;DHT22;10942;47.894;11.424;2023-04-03T07:26:49;2.90;99.90
21563;DHT22;10942;47.894;11.424;2023-04-03T07:29:15;2.70;99.90
21563;DHT22;10942;47.894;11.424;2023-04-03T07:31:40;2.80;99.90
21563;DHT22;10942;47.894;11.424;2023-04-03T07:34:06;3.00;99.90
21563;DHT22;10942;47.894;11.424;2023-04-03T07:36:32;3.00;99.90
21563;DHT22;10942;47.894;11.424;2023-04-03T07:38:59;3.00;99.90
21563;DHT22;10942;47.894;11.424;2023-04-03T07:41:24;3.00;99.90
21563;DHT22;10942;47.894;11.424;2023-04-03T07:43:50;3.20;99.90
21563;DHT22;10942;47.894;11.424;2023-04-03T07:46:16;3.20;99.90
21563;DHT22;10942;47.894;11.424;2023-04-03T07:48:43;3.20;99.90
21563;DHT22;10942;47.894;11.424;2023-04-03T07:51:09;3.10;99.90
21563;DHT22;10942;47.894;11.424;2023-04-03T07:53:36;3.30;99.90
21563;DHT22;10942;47.894;11.424;2023-04-03T07:56:01;3.30;99.90
21563;DHT22;10942;47.894;11.424;2023-04-03T07:58:28;3.30;99.90
21563;DHT22;10942;47.894;11.424;2023-04-03T08:00:54;3.20;99.90
21563;DHT22;10942;47.894;11.424;2023-04-03T08:03:19;3.30;99.90
21563;DHT22;10942;47.894;11.424;2023-04-03T08:05:47;3.20;99.90
21563;DHT22;10942;47.894;11.424;2023-04-03T08:08:15;3.30;99.90
21563;DHT22;10942;47.894;11.424;2023-04-03T08:10:41;3.40;99.90
21563;DHT22;10942;47.894;11.424;2023-04-03T08:13:08;3.40;99.90
21563;DHT22;10942;47.894;11.424;2023-04-03T08:15:35;3.50;99.90
21563;DHT22;10942;47.894;11.424;2023-04-03T08:18:03;3.50;99.90
21563;DHT22;10942;47.894;11.424;2023-04-03T08:20:29;3.50;99.90
21563;DHT22;10942;47.894;11.424;2023-04-03T08:22:55;3.50;99.90
21563;DHT22;10942;47.894;11.424;2023-04-03T08:25:21;3.50;99.90
21563;DHT22;10942;47.894;11.424;2023-04-03T08:27:47;3.20;99.90
21563;DHT22;10942;47.894;11.424;2023-04-03T08:30:13;3.10;99.90
21563;DHT22;10942;47.894;11.424;2023-04-03T08:32:39;3.20;99.90
21563;DHT22;10942;47.894;11.424;2023-04-03T08:35:07;3.20;99.90
21563;DHT22;10942;47.894;11.424;2023-04-03T08:37:35;3.30;99.90
21563;DHT22;10942;47.894;11.424;2023-04-03T08:40:03;3.30;99.90
21563;DHT22;10942;47.894;11.424;2023-04-03T08:47:53;3.60;99.90
21563;DHT22;10942;47.894;11.424;2023-04-03T08:50:33;3.50;99.90
21563;DHT22;10942;47.894;11.424;2023-04-03T08:53:02;3.60;99.90
21563;DHT22;10942;47.894;11.424;2023-04-03T08:55:36;3.60;99.90
21563;DHT22;10942;47.894;11.424;2023-04-03T09:03:15;3.50;99.90
21563;DHT22;10942;47.894;11.424;2023-04-03T09:06:05;3.70;99.90
21563;DHT22;10942;47.894;11.424;2023-04-03T09:13:49;3.80;99.90
21563;DHT22;10942;47.894;11.424;2023-04-03T09:19:21;4.00;99.90
21563;DHT22;10942;47.894;11.424;2023-04-03T09:21:48;4.10;99.90
21563;DHT22;10942;47.894;11.424;2023-04-03T09:24:16;4.20;99.90
21563;DHT22;10942;47.894;11.424;2023-04-03T09:26:58;4.30;99.90
21563;DHT22;10942;47.894;11.424;2023-04-03T09:29:26;4.10;99.90
21563;DHT22;10942;47.894;11.424;2023-04-03T09:32:01;4.30;99.90
21563;DHT22;10942;47.894;11.424;2023-04-03T09:34:36;4.40;99.90
21563;DHT22;10942;47.894;11.424;2023-04-03T09:37:04;4.50;99.90
21563;DHT22;10942;47.894;11.424;2023-04-03T09:39:32;4.50;99.90
21563;DHT22;10942;47.894;11.424;2023-04-03T09:44:38;4.70;99.90
21563;DHT22;10942;47.894;11.424;2023-04-03T09:52:44;4.70;99.90
21563;DHT22;10942;47.894;11.424;2023-04-03T09:55:29;4.60;99.90
21563;DHT22;10942;47.894;11.424;2023-04-03T09:58:05;4.50;99.90
21563;DHT22;10942;47.894;11.424;2023-04-03T10:00:54;4.50;99.90
21563;DHT22;10942;47.894;11.424;2023-04-03T10:03:27;4.60;99.90
21563;DHT22;10942;47.894;11.424;2023-04-03T10:05:53;4.60;99.90
21563;DHT22;10942;47.894;11.424;2023-04-03T11:28:43;4.60;99.90
21563;DHT22;10942;47.894;11.424;2023-04-03T11:34:07;4.50;99.90
21563;DHT22;10942;47.894;11.424;2023-04-03T11:36:41;4.50;99.90
21563;DHT22;10942;47.894;11.424;2023-04-03T11:41:43;4.60;99.90
21563;DHT22;10942;47.894;11.424;2023-04-03T11:46:58;4.60;99.90
21563;DHT22;10942;47.894;11.424;2023-04-03T11:58:12;4.70;99.90
21563;DHT22;10942;47.894;11.424;2023-04-03T12:13:36;3.70;99.90
21563;DHT22;10942;47.894;11.424;2023-04-03T12:16:48;3.70;99.90
21563;DHT22;10942;47.894;11.424;2023-04-03T12:21:17;3.60;99.90
21563;DHT22;10942;47.894;11.424;2023-04-03T12:26:34;3.80;99.90
21563;DHT22;10942;47.894;11.424;2023-04-03T12:29:17;3.80;99.90
21563;DHT22;10942;47.894;11.424;2023-04-03T12:37:38;4.10;99.90
21563;DHT22;10942;47.894;11.424;2023-04-03T12:45:44;4.20;99.90
21563;DHT22;10942;47.894;11.424;2023-04-03T12:48:17;4.10;99.90
21563;DHT22;10942;47.894;11.424;2023-04-03T12:50:45;4.30;99.90
21563;DHT22;10942;47.894;11.424;2023-04-03T12:55:39;4.30;99.90
21563;DHT22;10942;47.894;11.424;2023-04-03T13:00:42;4.40;99.90
21563;DHT22;10942;47.894;11.424;2023-04-03T13:03:22;4.50;99.90
21563;DHT22;10942;47.894;11.424;2023-04-03T13:05:49;4.50;99.90
21563;DHT22;10942;47.894;11.424;2023-04-03T13:08:16;4.60;99.90
21563;DHT22;10942;47.894;11.424;2023-04-03T13:11:06;4.50;99.90
21563;DHT22;10942;47.894;11.424;2023-04-03T13:13:35;4.70;99.90
21563;DHT22;10942;47.894;11.424;2023-04-03T13:16:09;4.80;99.90
21563;DHT22;10942;47.894;11.424;2023-04-03T13:18:36;4.90;99.90
21563;DHT22;10942;47.894;11.424;2023-04-03T13:21:03;4.90;99.90
21563;DHT22;10942;47.894;11.424;2023-04-03T13:23:30;4.80;99.90
21563;DHT22;10942;47.894;11.424;2023-04-03T13:25:57;5.00;99.90
21563;DHT22;10942;47.894;11.424;2023-04-03T13:28:28;5.00;99.90
21563;DHT22;10942;47.894;11.424;2023-04-03T13:31:05;5.10;99.90
21563;DHT22;10942;47.894;11.424;2023-04-03T13:33:34;5.00;99.90
21563;DHT22;10942;47.894;11.424;2023-04-03T13:36:21;5.00;99.90
21563;DHT22;10942;47.894;11.424;2023-04-03T13:38:59;5.00;99.90
21563;DHT22;10942;47.894;11.424;2023-04-03T13:41:33;5.10;99.90
21563;DHT22;10942;47.894;11.424;2023-04-03T13:46:56;5.20;99.90
21563;DHT22;10942;47.894;11.424;2023-04-03T13:51:54;5.30;99.90
21563;DHT22;10942;47.894;11.424;2023-04-03T13:54:23;5.30;99.90
21563;DHT22;10942;47.894;11.424;2023-04-03T13:56:54;5.10;99.90
21563;DHT22;10942;47.894;11.424;2023-04-03T13:59:32;5.10;99.90
21563;DHT22;10942;47.894;11.424;2023-04-03T14:04:44;4.90;99.90
21563;DHT22;10942;47.894;11.424;2023-04-03T14:07:15;4.90;99.90
21563;DHT22;10942;47.894;11.424;2023-04-03T14:09:41;4.90;99.90
21563;DHT22;10942;47.894;11.424;2023-04-03T14:12:13;4.70;99.90
21563;DHT22;10942;47.894;11.424;2023-04-03T14:14:41;4.90;99.90
21563;DHT22;10942;47.894;11.424;2023-04-03T14:17:19;5.00;99.90
21563;DHT22;10942;47.894;11.424;2023-04-03T14:19:46;5.00;99.90
21563;DHT22;10942;47.894;11.424;2023-04-03T14:22:21;4.90;99.90
21563;DHT22;10942;47.894;11.424;2023-04-03T14:24:48;5.00;99.90
21563;DHT22;10942;47.894;11.424;2023-04-03T14:27:21;5.10;99.90
21563;DHT22;10942;47.894;11.424;2023-04-03T14:29:49;5.00;99.90
21563;DHT22;10942;47.894;11.424;2023-04-03T14:32:16;5.10;99.90
21563;DHT22;10942;47.894;11.424;2023-04-03T14:34:43;5.00;99.90
21563;DHT22;10942;47.894;11.424;2023-04-03T14:37:13;5.10;99.90
21563;DHT22;10942;47.894;11.424;2023-04-03T14:39:41;5.10;99.90
21563;DHT22;10942;47.894;11.424;2023-04-03T14:42:13;5.10;99.90
21563;DHT22;10942;47.894;11.424;2023-04-03T14:44:38;5.00;99.90
21563;DHT22;10942;47.894;11.424;2023-04-03T14:47:04;5.10;99.90
21563;DHT22;10942;47.894;11.424;2023-04-03T14:49:30;5.20;99.90
21563;DHT22;10942;47.894;11.424;2023-04-03T14:51:57;5.30;99.90
21563;DHT22;10942;47.894;11.424;2023-04-03T14:54:23;5.20;99.90
21563;DHT22;10942;47.894;11.424;2023-04-03T14:56:54;5.20;99.90
21563;DHT22;10942;47.894;11.424;2023-04-03T14:59:21;5.00;99.90
21563;DHT22;10942;47.894;11.424;2023-04-03T15:01:47;5.10;99.90
21563;DHT22;10942;47.894;11.424;2023-04-03T15:04:18;5.20;99.90
21563;DHT22;10942;47.894;11.424;2023-04-03T15:06:45;5.20;99.90
21563;DHT22;10942;47.894;11.424;2023-04-03T15:09:23;5.10;99.90
21563;DHT22;10942;47.894;11.424;2023-04-03T15:11:50;5.10;99.90
21563;DHT22;10942;47.894;11.424;2023-04-03T15:14:16;5.10;99.90
21563;DHT22;10942;47.894;11.424;2023-04-03T15:16:42;5.10;99.90
21563;DHT22;10942;47.894;11.424;2023-04-03T15:19:09;5.00;99.90
21563;DHT22;10942;47.894;11.424;2023-04-03T15:21:35;4.90;99.90
21563;DHT22;10942;47.894;11.424;2023-04-03T15:24:01;4.70;99.90
21563;DHT22;10942;47.894;11.424;2023-04-03T15:26:27;4.60;99.90
21563;DHT22;10942;47.894;11.424;2023-04-03T15:28:53;4.60;99.90
21563;DHT22;10942;47.894;11.424;2023-04-03T15:31:18;4.60;99.90
21563;DHT22;10942;47.894;11.424;2023-04-03T15:33:44;4.60;99.90
21563;DHT22;10942;47.894;11.424;2023-04-03T15:36:10;4.40;99.90
21563;DHT22;10942;47.894;11.424;2023-04-03T15:38:36;4.40;99.90
21563;DHT22;10942;47.894;11.424;2023-04-03T15:41:04;4.40;99.90
21563;DHT22;10942;47.894;11.424;2023-04-03T15:43:30;4.40;99.90
21563;DHT22;10942;47.894;11.424;2023-04-03T15:45:57;4.50;99.90
21563;DHT22;10942;47.894;11.424;2023-04-03T15:48:24;4.30;99.90
21563;DHT22;10942;47.894;11.424;2023-04-03T15:50:50;4.30;99.90
21563;DHT22;10942;47.894;11.424;2023-04-03T15:53:15;4.40;99.90
21563;DHT22;10942;47.894;11.424;2023-04-03T15:55:41;4.30;99.90
21563;DHT22;10942;47.894;11.424;2023-04-03T15:58:07;4.20;99.90
21563;DHT22;10942;47.894;11.424;2023-04-03T16:00:33;4.20;99.90
21563;DHT22;10942;47.894;11.424;2023-04-03T16:03:02;4.20;99.90
21563;DHT22;10942;47.894;11.424;2023-04-03T16:05:30;4.30;99.90
21563;DHT22;10942;47.894;11.424;2023-04-03T16:07:57;4.40;99.90
21563;DHT22;10942;47.894;11.424;2023-04-03T16:10:23;4.30;99.90
21563;DHT22;10942;47.894;11.424;2023-04-03T16:12:49;4.10;99.90
21563;DHT22;10942;47.894;11.424;2023-04-03T16:15:15;4.20;99.90
21563;DHT22;10942;47.894;11.424;2023-04-03T16:17:40;4.30;99.90
21563;DHT22;10942;47.894;11.424;2023-04-03T16:20:08;4.20;99.90
21563;DHT22;10942;47.894;11.424;2023-04-03T16:22:34;4.20;99.90
21563;DHT22;10942;47.894;11.424;2023-04-03T16:25:00;4.20;99.90
21563;DHT22;10942;47.894;11.424;2023-04-03T16:27:26;4.30;99.90
21563;DHT22;10942;47.894;11.424;2023-04-03T16:29:56;4.30;99.90
21563;DHT22;10942;47.894;11.424;2023-04-03T16:32:23;4.20;99.90
21563;DHT22;10942;47.894;11.424;2023-04-03T16:34:49;4.20;99.90
21563;DHT22;10942;47.894;11.424;2023-04-03T16:37:15;4.20;99.90
21563;DHT22;10942;47.894;11.424;2023-04-03T16:39:41;4.20;99.90
21563;DHT22;10942;47.894;11.424;2023-04-03T16:42:07;4.20;99.90
21563;DHT22;10942;47.894;11.424;2023-04-03T16:44:34;4.20;99.90
21563;DHT22;10942;47.894;11.424;2023-04-03T16:47:00;4.10;99.90
21563;DHT22;10942;47.894;11.424;2023-04-03T16:49:26;4.10;99.90
21563;DHT22;10942;47.894;11.424;2023-04-03T16:51:58;4.10;99.90
21563;DHT22;10942;47.894;11.424;2023-04-03T16:54:24;4.10;99.90
21563;DHT22;10942;47.894;11.424;2023-04-03T16:56:50;4.10;99.90
21563;DHT22;10942;47.894;11.424;2023-04-03T16:59:15;4.00;99.90
21563;DHT22;10942;47.894;11.424;2023-04-03T17:01:41;4.00;99.90
21563;DHT22;10942;47.894;11.424;2023-04-03T17:04:07;3.90;99.90
21563;DHT22;10942;47.894;11.424;2023-04-03T17:06:32;4.00;99.90
21563;DHT22;10942;47.894;11.424;2023-04-03T17:08:58;4.00;99.90
21563;DHT22;10942;47.894;11.424;2023-04-03T17:11:27;4.00;99.90
21563;DHT22;10942;47.894;11.424;2023-04-03T17:13:53;3.90;99.90
21563;DHT22;10942;47.894;11.424;2023-04-03T17:16:19;3.90;99.90
21563;DHT22;10942;47.894;11.424;2023-04-03T17:21:13;3.60;99.90
21563;DHT22;10942;47.894;11.424;2023-04-03T17:23:42;3.60;99.90
21563;DHT22;10942;47.894;11.424;2023-04-03T17:26:08;3.50;99.90
21563;DHT22;10942;47.894;11.424;2023-04-03T17:28:33;3.50;99.90
21563;DHT22;10942;47.894;11.424;2023-04-03T17:31:01;3.50;99.90
21563;DHT22;10942;47.894;11.424;2023-04-03T17:33:28;3.50;99.90
21563;DHT22;10942;47.894;11.424;2023-04-03T17:35:57;3.50;99.90
21563;DHT22;10942;47.894;11.424;2023-04-03T17:38:23;3.60;99.90
21563;DHT22;10942;47.894;11.424;2023-04-03T17:40:48;3.50;99.90
21563;DHT22;10942;47.894;11.424;2023-04-03T17:43:14;3.60;99.90
21563;DHT22;10942;47.894;11.424;2023-04-03T17:45:40;3.60;99.90
21563;DHT22;10942;47.894;11.424;2023-04-03T17:48:06;3.60;99.90
21563;DHT22;10942;47.894;11.424;2023-04-03T17:50:31;3.60;99.90
21563;DHT22;10942;47.894;11.424;2023-04-03T17:52:57;3.50;99.90
21563;DHT22;10942;47.894;11.424;2023-04-03T17:55:23;3.50;99.90
21563;DHT22;10942;47.894;11.424;2023-04-03T17:57:48;3.50;99.90
21563;DHT22;10942;47.894;11.424;2023-04-03T18:00:15;3.40;99.90
21563;DHT22;10942;47.894;11.424;2023-04-03T18:02:41;3.40;99.90
21563;DHT22;10942;47.894;11.424;2023-04-03T18:05:08;3.40;99.90
21563;DHT22;10942;47.894;11.424;2023-04-03T18:07:36;3.40;99.90
21563;DHT22;10942;47.894;11.424;2023-04-03T18:10:03;3.30;99.90
21563;DHT22;10942;47.894;11.424;2023-04-03T18:14:57;3.30;99.90
21563;DHT22;10942;47.894;11.424;2023-04-03T18:27:18;3.20;99.90
21563;DHT22;10942;47.894;11.424;2023-04-03T18:29:48;3.10;99.90
21563;DHT22;10942;47.894;11.424;2023-04-03T18:32:17;3.10;99.90
21563;DHT22;10942;47.894;11.424;2023-04-03T18:34:43;3.00;99.90